createdAt,value
2019-02-18T00:03:27.148Z,46.03
2019-02-18T00:07:32.840Z,41.86
2019-02-18T00:11:39.508Z,45.70
2019-02-18T00:15:45.426Z,42.21
2019-02-18T00:19:51.130Z,47.49
2019-02-18T00:23:56.818Z,45.88
2019-02-18T00:28:02.497Z,44.33
2019-02-18T00:32:08.284Z,47.44
2019-02-18T00:36:13.989Z,50.18
2019-02-18T00:40:19.647Z,45.28
2019-02-18T00:44:25.346Z,49.59
2019-02-18T00:48:31.158Z,44.26
2019-02-18T00:52:36.836Z,45.02
2019-02-18T00:56:42.525Z,44.30
2019-02-18T01:00:48.216Z,47.41
2019-02-18T01:04:53.977Z,43.96
2019-02-18T01:08:59.660Z,45.27
2019-02-18T01:13:05.376Z,45.88
2019-02-18T01:17:11.061Z,45.68
2019-02-18T01:21:16.805Z,45.57
2019-02-18T01:25:22.497Z,47.33
2019-02-18T01:29:28.240Z,46.05
2019-02-18T01:33:33.932Z,44.35
2019-02-18T01:37:45.798Z,46.36
2019-02-18T01:41:47.118Z,45.67
2019-02-18T01:45:52.809Z,47.23
2019-02-18T01:49:58.494Z,46.07
2019-02-18T01:54:04.173Z,46.36
2019-02-18T01:58:09.857Z,47.75
2019-02-18T02:02:15.530Z,45.56
2019-02-18T02:06:21.281Z,49.56
2019-02-18T02:10:27.350Z,47.00
2019-02-18T02:14:33.191Z,45.94
2019-02-18T02:18:38.861Z,48.48
2019-02-18T02:22:44.634Z,46.02
2019-02-18T02:26:50.314Z,46.51
2019-02-18T02:30:56.089Z,47.34
2019-02-18T02:35:01.771Z,48.05
2019-02-18T02:39:07.843Z,47.21
2019-02-18T02:43:13.531Z,47.93
2019-02-18T02:47:19.219Z,48.04
2019-02-18T02:51:24.907Z,48.45
2019-02-18T02:55:30.901Z,50.01
2019-02-18T02:59:36.573Z,45.93
2019-02-18T03:03:42.243Z,49.13
2019-02-18T03:07:47.938Z,47.77
2019-02-18T03:11:53.611Z,47.70
2019-02-18T03:15:59.284Z,50.78
2019-02-18T03:20:08.308Z,49.02
2019-02-18T03:24:13.983Z,46.97
2019-02-18T03:28:43.673Z,47.77
2019-02-18T03:32:49.404Z,47.20
2019-02-18T03:36:55.070Z,51.82
2019-02-18T03:41:03.482Z,48.96
2019-02-18T03:45:08.462Z,48.49
2019-02-18T03:49:14.150Z,46.96
2019-02-18T03:53:19.999Z,50.58
2019-02-18T03:57:25.665Z,48.68
2019-02-18T04:01:31.558Z,46.43
2019-02-18T04:05:37.362Z,46.31
2019-02-18T04:09:43.038Z,47.23
2019-02-18T04:13:48.715Z,49.37
2019-02-18T04:17:54.420Z,48.08
2019-02-18T04:22:00.113Z,49.52
2019-02-18T04:26:05.804Z,48.57
2019-02-18T04:30:13.726Z,53.12
2019-02-18T04:34:19.564Z,49.08
2019-02-18T04:38:25.244Z,47.93
2019-02-18T04:42:31.006Z,48.10
2019-02-18T04:46:36.691Z,49.93
2019-02-18T04:50:42.382Z,48.00
2019-02-18T04:54:48.090Z,48.25
2019-02-18T04:58:53.747Z,48.79
2019-02-18T05:02:59.503Z,48.26
2019-02-18T05:07:05.190Z,51.60
2019-02-18T05:11:10.868Z,49.66
2019-02-18T05:15:16.559Z,49.44
2019-02-18T05:19:23.074Z,51.79
2019-02-18T05:23:29.021Z,48.76
2019-02-18T05:27:34.709Z,49.29
2019-02-18T05:31:40.384Z,49.14
2019-02-18T05:35:46.050Z,48.18
2019-02-18T05:39:51.758Z,49.64
2019-02-18T05:43:57.489Z,49.64
2019-02-18T05:48:03.189Z,50.57
2019-02-18T05:52:08.876Z,49.87
2019-02-18T05:56:14.551Z,48.81
2019-02-18T06:00:20.265Z,50.10
2019-02-18T06:04:25.965Z,48.27
2019-02-18T06:08:31.859Z,49.23
2019-02-18T06:12:37.627Z,50.14
2019-02-18T06:16:43.289Z,50.21
2019-02-18T06:20:48.976Z,51.53
2019-02-18T06:24:56.296Z,50.65
2019-02-18T06:29:01.997Z,49.19
2019-02-18T06:33:07.673Z,51.57
2019-02-18T06:37:13.382Z,50.96
2019-02-18T06:41:19.084Z,50.48
2019-02-18T06:45:36.647Z,50.19
2019-02-18T06:49:42.329Z,50.63
2019-02-18T06:53:48.009Z,49.76
2019-02-18T06:58:02.387Z,49.91
2019-02-18T07:02:15.776Z,50.55
2019-02-18T07:06:26.106Z,52.74
2019-02-18T07:10:35.983Z,49.52
2019-02-18T07:14:41.685Z,56.59
2019-02-18T07:18:47.364Z,51.19
2019-02-18T07:22:53.048Z,49.92
2019-02-18T07:27:00.390Z,51.62
2019-02-18T07:31:06.136Z,48.37
2019-02-18T07:35:11.854Z,45.86
2019-02-18T07:39:18.588Z,47.22
2019-02-18T07:43:24.281Z,53.21
2019-02-18T07:47:30.038Z,52.98
2019-02-18T07:51:35.737Z,47.89
2019-02-18T07:55:41.407Z,47.91
2019-02-18T07:59:47.094Z,45.87
2019-02-18T08:03:52.783Z,46.42
2019-02-18T08:07:58.470Z,45.17
2019-02-18T08:12:04.328Z,47.09
2019-02-18T08:16:10.004Z,48.10
2019-02-18T08:20:15.700Z,46.35
2019-02-18T08:24:21.374Z,46.15
2019-02-18T08:28:27.070Z,45.34
2019-02-18T08:32:32.791Z,47.33
2019-02-18T08:36:38.472Z,44.96
2019-02-18T08:40:44.172Z,45.44
2019-02-18T08:44:49.859Z,45.92
2019-02-18T08:48:55.593Z,47.35
2019-02-18T08:53:01.282Z,46.20
2019-02-18T08:57:06.970Z,43.86
2019-02-18T09:01:12.668Z,42.84
2019-02-18T09:05:18.441Z,43.87
2019-02-18T09:09:24.241Z,42.87
2019-02-18T09:13:29.958Z,42.07
2019-02-18T09:17:35.660Z,39.84
2019-02-18T09:21:41.359Z,42.47
2019-02-18T09:25:48.706Z,36.54
2019-02-18T09:29:54.418Z,33.74
2019-02-18T09:34:00.106Z,33.41
2019-02-18T09:38:05.859Z,36.34
2019-02-18T09:42:11.620Z,34.04
2019-02-18T09:46:17.395Z,32.97
2019-02-18T09:50:23.214Z,33.07
2019-02-18T09:54:28.929Z,34.49
2019-02-18T09:58:34.624Z,35.94
2019-02-18T10:02:40.465Z,32.50
2019-02-18T10:06:46.181Z,32.59
2019-02-18T10:10:55.681Z,34.64
2019-02-18T10:14:59.254Z,32.47
2019-02-18T10:19:05.022Z,32.18
2019-02-18T10:23:10.730Z,28.40
2019-02-18T10:27:16.460Z,30.28
2019-02-18T10:31:22.168Z,28.75
2019-02-18T10:35:27.951Z,25.54
2019-02-18T10:39:33.641Z,28.30
2019-02-18T10:43:39.336Z,31.90
2019-02-18T10:47:45.114Z,27.65
2019-02-18T10:51:50.802Z,31.62
2019-02-18T10:55:57.480Z,31.16
2019-02-18T11:00:03.655Z,29.00
2019-02-18T11:04:15.324Z,29.64
2019-02-18T11:08:21.021Z,30.02
2019-02-18T11:12:26.704Z,32.00
2019-02-18T11:16:32.404Z,27.83
2019-02-18T11:20:38.104Z,26.25
2019-02-18T11:24:43.825Z,27.11
2019-02-18T11:28:49.521Z,24.52
2019-02-18T11:32:55.268Z,20.43
2019-02-18T11:37:01.043Z,20.11
2019-02-18T11:41:06.922Z,17.67
2019-02-18T11:45:15.172Z,17.37
2019-02-18T11:49:20.844Z,17.05
2019-02-18T11:53:26.542Z,16.18
2019-02-18T11:57:32.249Z,17.75
2019-02-18T12:01:38.332Z,17.60
2019-02-18T12:05:44.034Z,17.26
2019-02-18T12:09:51.473Z,17.53
2019-02-18T12:13:57.088Z,17.89
2019-02-18T12:18:02.786Z,16.01
2019-02-18T12:22:08.490Z,16.11
2019-02-18T12:26:14.181Z,16.68
2019-02-18T12:30:20.253Z,17.90
2019-02-18T12:34:25.965Z,18.41
2019-02-18T12:38:32.065Z,20.77
2019-02-18T12:42:37.765Z,20.18
2019-02-18T12:46:45.005Z,19.24
2019-02-18T12:50:50.791Z,19.77
2019-02-18T12:55:00.211Z,20.54
2019-02-18T12:59:03.871Z,21.84
2019-02-18T13:03:09.572Z,23.72
2019-02-18T13:07:16.221Z,24.51
2019-02-18T13:11:21.919Z,21.44
2019-02-18T13:15:27.995Z,18.86
2019-02-18T13:19:33.691Z,19.39
2019-02-18T13:23:39.661Z,19.71
2019-02-18T13:27:45.366Z,20.50
2019-02-18T13:31:52.744Z,19.85
2019-02-18T13:35:58.523Z,19.57
2019-02-18T13:40:05.865Z,21.84
2019-02-18T13:44:11.561Z,23.00
2019-02-18T13:48:17.267Z,23.57
2019-02-18T13:52:23.522Z,28.00
2019-02-18T13:56:29.282Z,27.56
2019-02-18T14:00:35.407Z,27.63
2019-02-18T14:04:41.121Z,25.37
2019-02-18T14:08:46.960Z,27.37
2019-02-18T14:12:52.889Z,27.44
2019-02-18T14:16:59.331Z,30.30
2019-02-18T14:21:05.645Z,28.51
2019-02-18T14:25:11.878Z,33.31
2019-02-18T14:29:17.548Z,29.89
2019-02-18T14:33:23.307Z,28.95
2019-02-18T14:37:29.082Z,29.95
2019-02-18T14:41:34.788Z,30.08
2019-02-18T14:45:40.494Z,29.17
2019-02-18T14:49:46.545Z,29.34
2019-02-18T14:53:52.365Z,29.93
2019-02-18T14:57:58.740Z,29.17
2019-02-18T15:02:07.085Z,27.15
2019-02-18T15:06:13.770Z,29.29
2019-02-18T15:10:19.530Z,29.33
2019-02-18T15:14:25.227Z,28.93
2019-02-18T15:18:32.247Z,29.09
2019-02-18T15:22:37.931Z,29.20
2019-02-18T15:26:43.766Z,29.17
2019-02-18T15:30:49.489Z,27.04
2019-02-18T15:34:55.191Z,27.33
2019-02-18T15:39:00.956Z,29.67
2019-02-18T15:43:08.285Z,29.62
2019-02-18T15:47:14.327Z,28.50
2019-02-18T15:51:20.016Z,28.75
2019-02-18T15:55:25.803Z,29.98
2019-02-18T15:59:31.587Z,29.24
2019-02-18T16:03:37.251Z,29.47
2019-02-18T16:07:42.959Z,29.55
2019-02-18T16:11:48.646Z,29.84
2019-02-18T16:15:54.635Z,30.02
2019-02-18T16:20:00.400Z,30.20
2019-02-18T16:24:06.083Z,31.16
2019-02-18T16:28:11.786Z,32.44
2019-02-18T16:32:17.479Z,32.82
2019-02-18T16:36:23.185Z,32.71
2019-02-18T16:40:29.258Z,32.99
2019-02-18T16:44:34.948Z,33.70
2019-02-18T16:48:40.634Z,33.41
2019-02-18T16:52:46.331Z,32.45
2019-02-18T16:56:52.028Z,32.83
2019-02-18T17:00:58.008Z,31.84
2019-02-18T17:05:03.771Z,31.83
2019-02-18T17:09:13.794Z,31.42
2019-02-18T17:13:19.587Z,32.29
2019-02-18T17:17:25.294Z,37.37
2019-02-18T17:21:32.733Z,35.35
2019-02-18T17:25:40.543Z,33.34
2019-02-18T17:29:47.003Z,34.76
2019-02-18T17:33:54.319Z,34.71
2019-02-18T17:38:00.011Z,34.16
2019-02-18T17:42:05.731Z,35.83
2019-02-18T17:46:11.422Z,33.89
2019-02-18T17:50:18.100Z,34.91
2019-02-18T17:54:23.787Z,34.60
2019-02-18T17:58:29.502Z,37.99
2019-02-18T18:02:38.253Z,34.70
2019-02-18T18:06:43.973Z,34.91
2019-02-18T18:10:49.861Z,33.94
2019-02-18T18:14:55.545Z,33.66
2019-02-18T18:19:09.123Z,38.33
2019-02-18T18:23:08.766Z,35.27
2019-02-18T18:27:14.448Z,34.66
2019-02-18T18:36:13.408Z,38.91
2019-02-18T18:40:21.705Z,37.51
2019-02-18T18:44:27.433Z,34.08
2019-02-18T18:48:33.251Z,40.27
2019-02-18T18:52:40.398Z,40.08
2019-02-18T18:56:46.041Z,36.33
2019-02-18T19:00:51.770Z,35.50
2019-02-18T19:04:57.440Z,39.93
2019-02-18T19:09:03.767Z,38.92
2019-02-18T19:13:10.911Z,36.54
2019-02-18T19:17:16.949Z,37.02
2019-02-18T19:21:22.822Z,38.15
2019-02-18T19:25:28.601Z,41.04
2019-02-18T19:29:34.433Z,39.10
2019-02-18T19:33:40.140Z,41.19
2019-02-18T19:37:45.927Z,41.01
2019-02-18T19:41:53.173Z,38.15
2019-02-18T19:45:58.897Z,37.31
2019-02-18T19:50:07.089Z,37.33
2019-02-18T19:54:12.943Z,38.55
2019-02-18T19:58:18.760Z,40.58
2019-02-18T20:02:24.502Z,39.19
2019-02-18T20:06:30.501Z,44.60
2019-02-18T20:10:36.373Z,40.70
2019-02-18T20:14:42.129Z,40.67
2019-02-18T20:18:49.507Z,42.09
2019-02-18T20:22:55.228Z,40.59
2019-02-18T20:27:00.956Z,39.08
2019-02-18T20:31:06.644Z,39.59
2019-02-18T20:35:14.312Z,40.49
2019-02-18T20:39:20.010Z,43.17
2019-02-18T20:43:25.748Z,42.54
2019-02-18T20:47:31.480Z,38.43
2019-02-18T20:51:37.268Z,37.92
2019-02-18T20:56:16.090Z,40.01
2019-02-18T21:00:22.178Z,41.91
2019-02-18T21:04:27.892Z,39.46
2019-02-18T21:08:33.664Z,38.69
2019-02-18T21:12:39.357Z,41.80
2019-02-18T21:16:45.056Z,39.35
2019-02-18T21:21:17.719Z,44.13
2019-02-18T21:25:23.419Z,39.36
2019-02-18T21:29:29.153Z,37.54
2019-02-18T21:34:17.209Z,39.84
2019-02-18T21:38:22.934Z,37.99
2019-02-18T21:42:28.639Z,39.92
2019-02-18T21:46:34.511Z,42.18
2019-02-18T21:50:40.277Z,43.80
2019-02-18T21:54:45.960Z,44.81
2019-02-18T21:58:51.852Z,42.93
2019-02-18T22:02:57.548Z,39.15
2019-02-18T22:07:21.244Z,41.61
2019-02-18T22:11:27.333Z,42.53
2019-02-18T22:15:33.072Z,39.74
2019-02-18T22:19:38.778Z,43.59
2019-02-18T22:24:17.316Z,40.68
2019-02-18T22:28:23.986Z,40.63
2019-02-18T22:32:29.689Z,40.46
2019-02-18T22:36:35.520Z,40.90
2019-02-18T22:40:41.245Z,43.08
2019-02-18T22:44:46.952Z,41.33
2019-02-18T22:58:08.481Z,43.63
2019-02-18T23:02:15.398Z,43.65
2019-02-18T23:06:21.155Z,43.14
2019-02-18T23:10:26.954Z,46.15
2019-02-18T23:14:32.727Z,43.03
2019-02-18T23:18:40.031Z,45.74
2019-02-18T23:22:45.719Z,42.98
2019-02-18T23:26:51.420Z,45.33
2019-02-18T23:30:57.105Z,44.94
2019-02-18T23:35:02.812Z,42.11
2019-02-18T23:39:09.501Z,45.73
2019-02-18T23:43:15.284Z,46.09
2019-02-18T23:47:20.981Z,45.54
2019-02-18T23:51:26.759Z,43.41
2019-02-18T23:55:32.520Z,44.98
2019-02-18T23:59:42.029Z,43.26
